sensor_id;sensor_type;location;lat;lon;timestamp;P1;durP1;ratioP1;P2;durP2;ratioP2
2956;SDS011;1488;51.548;7.222;2023-04-24T00:00:21;0.97;;;0.67;;
2956;SDS011;1488;51.548;7.222;2023-04-24T00:02:48;1.10;;;0.90;;
2956;SDS011;1488;51.548;7.222;2023-04-24T00:05:15;1.73;;;0.83;;
2956;SDS011;1488;51.548;7.222;2023-04-24T00:07:43;0.90;;;0.60;;
2956;SDS011;1488;51.548;7.222;2023-04-24T00:10:12;1.00;;;0.70;;
2956;SDS011;1488;51.548;7.222;2023-04-24T00:12:39;1.10;;;0.70;;
2956;SDS011;1488;51.548;7.222;2023-04-24T00:15:06;1.17;;;0.87;;
2956;SDS011;1488;51.548;7.222;2023-04-24T00:17:34;1.73;;;0.80;;
2956;SDS011;1488;51.548;7.222;2023-04-24T00:20:01;1.10;;;0.80;;
2956;SDS011;1488;51.548;7.222;2023-04-24T00:22:30;4.57;;;0.77;;
2956;SDS011;1488;51.548;7.222;2023-04-24T00:24:58;1.00;;;0.70;;
2956;SDS011;1488;51.548;7.222;2023-04-24T00:27:26;1.00;;;0.83;;
2956;SDS011;1488;51.548;7.222;2023-04-24T00:29:53;1.00;;;0.77;;
2956;SDS011;1488;51.548;7.222;2023-04-24T00:32:19;1.00;;;0.70;;
2956;SDS011;1488;51.548;7.222;2023-04-24T00:34:46;1.10;;;0.70;;
2956;SDS011;1488;51.548;7.222;2023-04-24T00:37:13;0.90;;;0.60;;
2956;SDS011;1488;51.548;7.222;2023-04-24T00:39:40;1.00;;;0.70;;
2956;SDS011;1488;51.548;7.222;2023-04-24T00:42:07;0.90;;;0.60;;
2956;SDS011;1488;51.548;7.222;2023-04-24T00:44:36;1.77;;;0.73;;
2956;SDS011;1488;51.548;7.222;2023-04-24T00:47:03;1.10;;;0.70;;
2956;SDS011;1488;51.548;7.222;2023-04-24T00:49:30;1.00;;;0.70;;
2956;SDS011;1488;51.548;7.222;2023-04-24T00:51:57;1.07;;;0.80;;
2956;SDS011;1488;51.548;7.222;2023-04-24T00:54:24;1.00;;;0.90;;
2956;SDS011;1488;51.548;7.222;2023-04-24T00:56:51;1.00;;;0.70;;
2956;SDS011;1488;51.548;7.222;2023-04-24T00:59:18;1.10;;;0.73;;
2956;SDS011;1488;51.548;7.222;2023-04-24T01:01:46;1.00;;;0.70;;
2956;SDS011;1488;51.548;7.222;2023-04-24T01:04:13;1.97;;;0.93;;
2956;SDS011;1488;51.548;7.222;2023-04-24T01:06:40;1.00;;;0.87;;
2956;SDS011;1488;51.548;7.222;2023-04-24T01:09:10;1.10;;;0.90;;
2956;SDS011;1488;51.548;7.222;2023-04-24T01:11:38;1.10;;;0.70;;
2956;SDS011;1488;51.548;7.222;2023-04-24T01:14:06;1.10;;;0.80;;
2956;SDS011;1488;51.548;7.222;2023-04-24T01:16:33;1.10;;;0.73;;
2956;SDS011;1488;51.548;7.222;2023-04-24T01:19:02;3.17;;;0.87;;
2956;SDS011;1488;51.548;7.222;2023-04-24T01:21:29;1.00;;;0.70;;
2956;SDS011;1488;51.548;7.222;2023-04-24T01:24:02;1.00;;;0.70;;
2956;SDS011;1488;51.548;7.222;2023-04-24T01:26:29;1.10;;;0.77;;
2956;SDS011;1488;51.548;7.222;2023-04-24T01:28:56;1.07;;;0.80;;
2956;SDS011;1488;51.548;7.222;2023-04-24T01:31:23;1.10;;;0.70;;
2956;SDS011;1488;51.548;7.222;2023-04-24T01:33:50;1.03;;;0.70;;
2956;SDS011;1488;51.548;7.222;2023-04-24T01:36:17;1.50;;;0.80;;
2956;SDS011;1488;51.548;7.222;2023-04-24T01:38:45;1.00;;;0.80;;
2956;SDS011;1488;51.548;7.222;2023-04-24T01:41:13;1.10;;;0.90;;
2956;SDS011;1488;51.548;7.222;2023-04-24T01:43:40;0.97;;;0.70;;
2956;SDS011;1488;51.548;7.222;2023-04-24T01:46:07;1.10;;;0.70;;
2956;SDS011;1488;51.548;7.222;2023-04-24T01:48:34;1.00;;;0.80;;
2956;SDS011;1488;51.548;7.222;2023-04-24T01:51:02;1.00;;;0.80;;
2956;SDS011;1488;51.548;7.222;2023-04-24T01:53:29;1.00;;;0.80;;
2956;SDS011;1488;51.548;7.222;2023-04-24T01:55:56;1.00;;;0.77;;
2956;SDS011;1488;51.548;7.222;2023-04-24T01:58:25;1.10;;;0.77;;
2956;SDS011;1488;51.548;7.222;2023-04-24T02:00:52;1.20;;;0.97;;
2956;SDS011;1488;51.548;7.222;2023-04-24T02:03:22;1.00;;;0.70;;
2956;SDS011;1488;51.548;7.222;2023-04-24T02:05:48;1.00;;;0.60;;
2956;SDS011;1488;51.548;7.222;2023-04-24T02:08:15;1.00;;;0.80;;
2956;SDS011;1488;51.548;7.222;2023-04-24T02:10:42;1.00;;;0.70;;
2956;SDS011;1488;51.548;7.222;2023-04-24T02:13:09;1.00;;;0.70;;
2956;SDS011;1488;51.548;7.222;2023-04-24T02:15:37;1.00;;;0.80;;
2956;SDS011;1488;51.548;7.222;2023-04-24T02:18:04;1.10;;;0.80;;
2956;SDS011;1488;51.548;7.222;2023-04-24T02:20:31;1.00;;;0.70;;
2956;SDS011;1488;51.548;7.222;2023-04-24T02:23:00;1.00;;;0.70;;
2956;SDS011;1488;51.548;7.222;2023-04-24T02:25:27;1.00;;;0.70;;
2956;SDS011;1488;51.548;7.222;2023-04-24T02:27:54;1.10;;;0.80;;
2956;SDS011;1488;51.548;7.222;2023-04-24T02:30:21;1.10;;;0.90;;
2956;SDS011;1488;51.548;7.222;2023-04-24T02:32:49;1.10;;;0.83;;
2956;SDS011;1488;51.548;7.222;2023-04-24T02:35:16;0.97;;;0.70;;
2956;SDS011;1488;51.548;7.222;2023-04-24T02:37:43;1.00;;;0.70;;
2956;SDS011;1488;51.548;7.222;2023-04-24T02:40:09;1.27;;;0.73;;
2956;SDS011;1488;51.548;7.222;2023-04-24T02:42:37;1.27;;;0.77;;
2956;SDS011;1488;51.548;7.222;2023-04-24T02:45:04;1.10;;;0.80;;
2956;SDS011;1488;51.548;7.222;2023-04-24T02:47:31;1.07;;;0.80;;
2956;SDS011;1488;51.548;7.222;2023-04-24T02:49:59;1.00;;;0.80;;
2956;SDS011;1488;51.548;7.222;2023-04-24T02:52:26;1.10;;;0.77;;
2956;SDS011;1488;51.548;7.222;2023-04-24T02:54:53;1.00;;;0.70;;
2956;SDS011;1488;51.548;7.222;2023-04-24T02:57:20;1.70;;;0.90;;
2956;SDS011;1488;51.548;7.222;2023-04-24T02:59:46;1.00;;;0.70;;
2956;SDS011;1488;51.548;7.222;2023-04-24T03:02:13;1.00;;;0.77;;
2956;SDS011;1488;51.548;7.222;2023-04-24T03:04:40;1.00;;;0.70;;
2956;SDS011;1488;51.548;7.222;2023-04-24T03:07:12;1.00;;;0.70;;
2956;SDS011;1488;51.548;7.222;2023-04-24T03:09:39;0.93;;;0.63;;
2956;SDS011;1488;51.548;7.222;2023-04-24T03:12:06;1.00;;;0.70;;
2956;SDS011;1488;51.548;7.222;2023-04-24T03:14:33;1.10;;;0.90;;
2956;SDS011;1488;51.548;7.222;2023-04-24T03:17:00;1.07;;;0.80;;
2956;SDS011;1488;51.548;7.222;2023-04-24T03:19:27;1.00;;;0.70;;
2956;SDS011;1488;51.548;7.222;2023-04-24T03:21:54;1.00;;;0.90;;
2956;SDS011;1488;51.548;7.222;2023-04-24T03:24:22;1.00;;;0.80;;
2956;SDS011;1488;51.548;7.222;2023-04-24T03:26:49;1.13;;;0.97;;
2956;SDS011;1488;51.548;7.222;2023-04-24T03:29:16;1.10;;;0.80;;
2956;SDS011;1488;51.548;7.222;2023-04-24T03:31:43;1.17;;;0.87;;
2956;SDS011;1488;51.548;7.222;2023-04-24T03:34:10;1.00;;;0.70;;
2956;SDS011;1488;51.548;7.222;2023-04-24T03:36:37;1.20;;;0.90;;
2956;SDS011;1488;51.548;7.222;2023-04-24T03:39:04;1.10;;;0.90;;
2956;SDS011;1488;51.548;7.222;2023-04-24T03:41:33;1.40;;;0.77;;
2956;SDS011;1488;51.548;7.222;2023-04-24T03:44:00;1.00;;;0.70;;
2956;SDS011;1488;51.548;7.222;2023-04-24T03:46:27;1.00;;;0.80;;
2956;SDS011;1488;51.548;7.222;2023-04-24T03:48:54;1.10;;;0.80;;
2956;SDS011;1488;51.548;7.222;2023-04-24T03:51:21;1.00;;;0.80;;
2956;SDS011;1488;51.548;7.222;2023-04-24T03:53:48;1.30;;;1.00;;
2956;SDS011;1488;51.548;7.222;2023-04-24T03:56:15;1.00;;;0.80;;
2956;SDS011;1488;51.548;7.222;2023-04-24T03:58:43;1.20;;;0.80;;
2956;SDS011;1488;51.548;7.222;2023-04-24T04:01:10;1.20;;;1.03;;
2956;SDS011;1488;51.548;7.222;2023-04-24T04:03:38;4.23;;;1.00;;
2956;SDS011;1488;51.548;7.222;2023-04-24T04:06:05;1.10;;;0.80;;
2956;SDS011;1488;51.548;7.222;2023-04-24T04:08:32;1.03;;;0.80;;
2956;SDS011;1488;51.548;7.222;2023-04-24T04:10:59;1.00;;;0.80;;
2956;SDS011;1488;51.548;7.222;2023-04-24T04:13:26;1.20;;;1.10;;
2956;SDS011;1488;51.548;7.222;2023-04-24T04:15:54;1.00;;;0.80;;
2956;SDS011;1488;51.548;7.222;2023-04-24T04:18:21;1.00;;;0.80;;
2956;SDS011;1488;51.548;7.222;2023-04-24T04:20:48;1.00;;;0.80;;
2956;SDS011;1488;51.548;7.222;2023-04-24T04:23:15;1.20;;;0.80;;
2956;SDS011;1488;51.548;7.222;2023-04-24T04:25:43;1.27;;;1.00;;
2956;SDS011;1488;51.548;7.222;2023-04-24T04:28:10;1.00;;;0.90;;
2956;SDS011;1488;51.548;7.222;2023-04-24T04:30:36;1.27;;;1.17;;
2956;SDS011;1488;51.548;7.222;2023-04-24T04:33:05;1.37;;;1.10;;
2956;SDS011;1488;51.548;7.222;2023-04-24T04:35:31;1.20;;;0.93;;
2956;SDS011;1488;51.548;7.222;2023-04-24T04:37:58;1.80;;;1.10;;
2956;SDS011;1488;51.548;7.222;2023-04-24T04:40:25;1.10;;;0.97;;
2956;SDS011;1488;51.548;7.222;2023-04-24T04:42:53;1.10;;;0.90;;
2956;SDS011;1488;51.548;7.222;2023-04-24T04:45:19;1.30;;;1.00;;
2956;SDS011;1488;51.548;7.222;2023-04-24T04:47:46;1.00;;;0.80;;
2956;SDS011;1488;51.548;7.222;2023-04-24T04:50:15;1.10;;;0.90;;
2956;SDS011;1488;51.548;7.222;2023-04-24T04:52:44;1.10;;;1.00;;
2956;SDS011;1488;51.548;7.222;2023-04-24T04:55:11;1.20;;;1.00;;
2956;SDS011;1488;51.548;7.222;2023-04-24T04:57:38;1.10;;;1.00;;
2956;SDS011;1488;51.548;7.222;2023-04-24T05:00:05;1.10;;;1.00;;
2956;SDS011;1488;51.548;7.222;2023-04-24T05:02:35;1.50;;;0.90;;
2956;SDS011;1488;51.548;7.222;2023-04-24T05:05:02;1.30;;;1.00;;
2956;SDS011;1488;51.548;7.222;2023-04-24T05:07:30;1.20;;;1.07;;
2956;SDS011;1488;51.548;7.222;2023-04-24T05:09:57;2.03;;;0.90;;
2956;SDS011;1488;51.548;7.222;2023-04-24T05:12:24;1.10;;;0.90;;
2956;SDS011;1488;51.548;7.222;2023-04-24T05:14:51;1.10;;;0.97;;
2956;SDS011;1488;51.548;7.222;2023-04-24T05:17:18;1.00;;;0.90;;
2956;SDS011;1488;51.548;7.222;2023-04-24T05:19:45;1.20;;;0.90;;
2956;SDS011;1488;51.548;7.222;2023-04-24T05:22:13;1.10;;;0.87;;
2956;SDS011;1488;51.548;7.222;2023-04-24T05:24:41;1.27;;;0.97;;
2956;SDS011;1488;51.548;7.222;2023-04-24T05:27:08;1.10;;;0.90;;
2956;SDS011;1488;51.548;7.222;2023-04-24T05:29:35;4.70;;;1.10;;
2956;SDS011;1488;51.548;7.222;2023-04-24T05:32:02;1.00;;;0.80;;
2956;SDS011;1488;51.548;7.222;2023-04-24T05:34:29;1.20;;;1.10;;
2956;SDS011;1488;51.548;7.222;2023-04-24T05:36:56;1.10;;;0.93;;
2956;SDS011;1488;51.548;7.222;2023-04-24T05:39:23;1.30;;;0.90;;
2956;SDS011;1488;51.548;7.222;2023-04-24T05:41:51;1.40;;;1.17;;
2956;SDS011;1488;51.548;7.222;2023-04-24T05:44:18;1.30;;;1.17;;
2956;SDS011;1488;51.548;7.222;2023-04-24T05:46:45;1.10;;;0.97;;
2956;SDS011;1488;51.548;7.222;2023-04-24T05:49:12;1.10;;;0.90;;
2956;SDS011;1488;51.548;7.222;2023-04-24T05:51:38;1.60;;;1.10;;
2956;SDS011;1488;51.548;7.222;2023-04-24T05:54:06;1.30;;;0.93;;
2956;SDS011;1488;51.548;7.222;2023-04-24T05:56:33;1.30;;;1.00;;
2956;SDS011;1488;51.548;7.222;2023-04-24T05:59:01;1.20;;;1.10;;
2956;SDS011;1488;51.548;7.222;2023-04-24T06:01:28;1.10;;;0.90;;
2956;SDS011;1488;51.548;7.222;2023-04-24T06:03:56;1.20;;;1.10;;
2956;SDS011;1488;51.548;7.222;2023-04-24T06:06:23;1.17;;;1.07;;
2956;SDS011;1488;51.548;7.222;2023-04-24T06:08:51;1.10;;;1.00;;
2956;SDS011;1488;51.548;7.222;2023-04-24T06:11:18;1.47;;;1.30;;
2956;SDS011;1488;51.548;7.222;2023-04-24T06:13:45;1.17;;;0.90;;
2956;SDS011;1488;51.548;7.222;2023-04-24T06:16:13;1.53;;;1.03;;
2956;SDS011;1488;51.548;7.222;2023-04-24T06:18:40;3.20;;;1.50;;
2956;SDS011;1488;51.548;7.222;2023-04-24T06:21:07;1.20;;;1.00;;
2956;SDS011;1488;51.548;7.222;2023-04-24T06:23:34;1.57;;;1.00;;
2956;SDS011;1488;51.548;7.222;2023-04-24T06:26:01;1.30;;;0.93;;
2956;SDS011;1488;51.548;7.222;2023-04-24T06:28:28;1.00;;;0.87;;
2956;SDS011;1488;51.548;7.222;2023-04-24T06:30:54;1.70;;;0.90;;
2956;SDS011;1488;51.548;7.222;2023-04-24T06:33:23;1.73;;;1.00;;
2956;SDS011;1488;51.548;7.222;2023-04-24T06:35:50;1.40;;;1.30;;
2956;SDS011;1488;51.548;7.222;2023-04-24T06:38:17;1.20;;;1.00;;
2956;SDS011;1488;51.548;7.222;2023-04-24T06:40:43;1.30;;;1.20;;
2956;SDS011;1488;51.548;7.222;2023-04-24T06:43:11;2.17;;;1.03;;
2956;SDS011;1488;51.548;7.222;2023-04-24T06:45:37;1.47;;;1.20;;
2956;SDS011;1488;51.548;7.222;2023-04-24T06:48:04;1.73;;;1.43;;
2956;SDS011;1488;51.548;7.222;2023-04-24T06:50:32;1.43;;;1.10;;
2956;SDS011;1488;51.548;7.222;2023-04-24T06:53:00;1.50;;;1.00;;
2956;SDS011;1488;51.548;7.222;2023-04-24T06:55:27;1.47;;;1.10;;
2956;SDS011;1488;51.548;7.222;2023-04-24T06:57:53;1.77;;;1.07;;
2956;SDS011;1488;51.548;7.222;2023-04-24T07:00:20;1.60;;;1.23;;
2956;SDS011;1488;51.548;7.222;2023-04-24T07:02:49;1.67;;;1.20;;
2956;SDS011;1488;51.548;7.222;2023-04-24T07:05:15;1.30;;;1.20;;
2956;SDS011;1488;51.548;7.222;2023-04-24T07:07:47;2.17;;;1.10;;
2956;SDS011;1488;51.548;7.222;2023-04-24T07:10:14;1.73;;;1.63;;
2956;SDS011;1488;51.548;7.222;2023-04-24T07:12:42;2.40;;;0.90;;
2956;SDS011;1488;51.548;7.222;2023-04-24T07:15:09;3.40;;;1.20;;
2956;SDS011;1488;51.548;7.222;2023-04-24T07:17:36;1.13;;;1.00;;
2956;SDS011;1488;51.548;7.222;2023-04-24T07:20:14;4.03;;;1.23;;
2956;SDS011;1488;51.548;7.222;2023-04-24T07:22:46;2.57;;;1.37;;
2956;SDS011;1488;51.548;7.222;2023-04-24T07:25:14;1.77;;;1.60;;
2956;SDS011;1488;51.548;7.222;2023-04-24T07:27:41;3.20;;;1.80;;
2956;SDS011;1488;51.548;7.222;2023-04-24T07:30:08;8.30;;;3.43;;
2956;SDS011;1488;51.548;7.222;2023-04-24T07:32:35;7.13;;;2.47;;
2956;SDS011;1488;51.548;7.222;2023-04-24T07:35:02;6.17;;;2.20;;
2956;SDS011;1488;51.548;7.222;2023-04-24T07:37:30;7.00;;;2.57;;
2956;SDS011;1488;51.548;7.222;2023-04-24T07:39:58;6.10;;;2.73;;
2956;SDS011;1488;51.548;7.222;2023-04-24T07:42:25;5.07;;;2.50;;
2956;SDS011;1488;51.548;7.222;2023-04-24T07:47:41;8.50;;;2.47;;
2956;SDS011;1488;51.548;7.222;2023-04-24T07:50:10;2.60;;;1.83;;
2956;SDS011;1488;51.548;7.222;2023-04-24T07:52:38;3.07;;;2.20;;
2956;SDS011;1488;51.548;7.222;2023-04-24T07:55:07;2.33;;;1.90;;
2956;SDS011;1488;51.548;7.222;2023-04-24T07:57:33;1.90;;;1.70;;
2956;SDS011;1488;51.548;7.222;2023-04-24T08:00:01;3.30;;;1.70;;
2956;SDS011;1488;51.548;7.222;2023-04-24T08:02:29;7.50;;;1.90;;
2956;SDS011;1488;51.548;7.222;2023-04-24T08:04:56;3.83;;;1.73;;
2956;SDS011;1488;51.548;7.222;2023-04-24T08:13:36;4.13;;;1.67;;
2956;SDS011;1488;51.548;7.222;2023-04-24T08:16:05;3.33;;;1.53;;
2956;SDS011;1488;51.548;7.222;2023-04-24T08:18:32;3.80;;;1.87;;
2956;SDS011;1488;51.548;7.222;2023-04-24T08:21:01;1.50;;;1.40;;
2956;SDS011;1488;51.548;7.222;2023-04-24T08:23:28;4.43;;;1.77;;
2956;SDS011;1488;51.548;7.222;2023-04-24T08:25:55;2.90;;;1.70;;
2956;SDS011;1488;51.548;7.222;2023-04-24T08:28:24;3.90;;;1.70;;
2956;SDS011;1488;51.548;7.222;2023-04-24T08:30:53;3.13;;;1.37;;
2956;SDS011;1488;51.548;7.222;2023-04-24T08:33:20;2.20;;;1.37;;
2956;SDS011;1488;51.548;7.222;2023-04-24T08:35:47;1.60;;;1.37;;
2956;SDS011;1488;51.548;7.222;2023-04-24T08:38:14;2.40;;;1.43;;
2956;SDS011;1488;51.548;7.222;2023-04-24T08:40:42;3.90;;;1.77;;
2956;SDS011;1488;51.548;7.222;2023-04-24T08:43:11;8.30;;;1.50;;
2956;SDS011;1488;51.548;7.222;2023-04-24T08:45:39;2.83;;;1.40;;
2956;SDS011;1488;51.548;7.222;2023-04-24T08:48:07;4.80;;;2.07;;
2956;SDS011;1488;51.548;7.222;2023-04-24T08:50:35;3.37;;;2.27;;
2956;SDS011;1488;51.548;7.222;2023-04-24T08:53:03;3.40;;;2.10;;
2956;SDS011;1488;51.548;7.222;2023-04-24T08:55:30;2.27;;;1.80;;
2956;SDS011;1488;51.548;7.222;2023-04-24T08:57:59;2.70;;;1.70;;
2956;SDS011;1488;51.548;7.222;2023-04-24T09:00:27;3.20;;;1.83;;
2956;SDS011;1488;51.548;7.222;2023-04-24T09:02:55;2.90;;;1.93;;
2956;SDS011;1488;51.548;7.222;2023-04-24T09:05:23;3.03;;;1.50;;
2956;SDS011;1488;51.548;7.222;2023-04-24T09:07:53;4.33;;;1.67;;
2956;SDS011;1488;51.548;7.222;2023-04-24T09:10:21;2.57;;;1.60;;
2956;SDS011;1488;51.548;7.222;2023-04-24T09:12:49;4.27;;;1.67;;
2956;SDS011;1488;51.548;7.222;2023-04-24T09:15:17;4.00;;;2.30;;
2956;SDS011;1488;51.548;7.222;2023-04-24T09:17:45;2.60;;;1.70;;
2956;SDS011;1488;51.548;7.222;2023-04-24T09:20:12;2.33;;;1.80;;
2956;SDS011;1488;51.548;7.222;2023-04-24T09:22:40;3.87;;;2.10;;
2956;SDS011;1488;51.548;7.222;2023-04-24T09:25:08;3.07;;;1.90;;
2956;SDS011;1488;51.548;7.222;2023-04-24T09:27:38;2.40;;;1.53;;
2956;SDS011;1488;51.548;7.222;2023-04-24T09:30:09;4.20;;;1.80;;
2956;SDS011;1488;51.548;7.222;2023-04-24T09:32:36;5.30;;;1.77;;
2956;SDS011;1488;51.548;7.222;2023-04-24T09:35:07;3.80;;;1.93;;
2956;SDS011;1488;51.548;7.222;2023-04-24T09:37:35;2.83;;;1.90;;
2956;SDS011;1488;51.548;7.222;2023-04-24T09:45:58;3.57;;;1.70;;
2956;SDS011;1488;51.548;7.222;2023-04-24T09:48:30;3.80;;;1.80;;
2956;SDS011;1488;51.548;7.222;2023-04-24T09:50:58;2.47;;;1.93;;
2956;SDS011;1488;51.548;7.222;2023-04-24T09:53:26;2.20;;;2.00;;
2956;SDS011;1488;51.548;7.222;2023-04-24T09:55:54;2.60;;;2.00;;
2956;SDS011;1488;51.548;7.222;2023-04-24T09:58:24;2.57;;;1.83;;
2956;SDS011;1488;51.548;7.222;2023-04-24T10:00:53;3.53;;;2.23;;
2956;SDS011;1488;51.548;7.222;2023-04-24T10:03:23;2.30;;;1.70;;
2956;SDS011;1488;51.548;7.222;2023-04-24T10:05:52;2.23;;;1.83;;
2956;SDS011;1488;51.548;7.222;2023-04-24T10:08:19;1.70;;;1.33;;
2956;SDS011;1488;51.548;7.222;2023-04-24T10:10:47;2.73;;;1.40;;
2956;SDS011;1488;51.548;7.222;2023-04-24T10:13:14;2.10;;;1.60;;
2956;SDS011;1488;51.548;7.222;2023-04-24T10:15:41;1.80;;;1.53;;
2956;SDS011;1488;51.548;7.222;2023-04-24T10:18:08;2.20;;;1.60;;
2956;SDS011;1488;51.548;7.222;2023-04-24T10:20:38;2.43;;;1.63;;
2956;SDS011;1488;51.548;7.222;2023-04-24T10:23:06;1.87;;;1.40;;
2956;SDS011;1488;51.548;7.222;2023-04-24T10:25:33;2.60;;;1.50;;
2956;SDS011;1488;51.548;7.222;2023-04-24T10:28:01;2.10;;;1.50;;
2956;SDS011;1488;51.548;7.222;2023-04-24T10:30:30;3.40;;;2.13;;
2956;SDS011;1488;51.548;7.222;2023-04-24T10:33:00;2.10;;;1.80;;
2956;SDS011;1488;51.548;7.222;2023-04-24T10:35:27;1.97;;;1.20;;
2956;SDS011;1488;51.548;7.222;2023-04-24T10:37:59;3.30;;;1.80;;
2956;SDS011;1488;51.548;7.222;2023-04-24T10:40:30;1.77;;;1.43;;
2956;SDS011;1488;51.548;7.222;2023-04-24T10:42:58;2.00;;;1.70;;
2956;SDS011;1488;51.548;7.222;2023-04-24T10:45:28;1.83;;;1.70;;
2956;SDS011;1488;51.548;7.222;2023-04-24T10:47:58;2.70;;;1.80;;
2956;SDS011;1488;51.548;7.222;2023-04-24T10:50:27;2.77;;;1.60;;
2956;SDS011;1488;51.548;7.222;2023-04-24T10:53:06;2.50;;;1.80;;
2956;SDS011;1488;51.548;7.222;2023-04-24T10:55:44;2.23;;;1.60;;
2956;SDS011;1488;51.548;7.222;2023-04-24T10:58:13;2.00;;;1.43;;
2956;SDS011;1488;51.548;7.222;2023-04-24T11:00:41;3.23;;;2.30;;
2956;SDS011;1488;51.548;7.222;2023-04-24T11:03:22;2.20;;;2.00;;
2956;SDS011;1488;51.548;7.222;2023-04-24T11:06:01;6.17;;;1.77;;
2956;SDS011;1488;51.548;7.222;2023-04-24T11:08:32;2.43;;;1.60;;
2956;SDS011;1488;51.548;7.222;2023-04-24T11:11:03;3.20;;;1.67;;
2956;SDS011;1488;51.548;7.222;2023-04-24T11:14:00;6.90;;;2.10;;
2956;SDS011;1488;51.548;7.222;2023-04-24T11:16:32;3.20;;;1.70;;
2956;SDS011;1488;51.548;7.222;2023-04-24T11:19:04;2.60;;;2.10;;
2956;SDS011;1488;51.548;7.222;2023-04-24T11:21:36;4.10;;;1.93;;
2956;SDS011;1488;51.548;7.222;2023-04-24T11:27:06;6.43;;;1.90;;
2956;SDS011;1488;51.548;7.222;2023-04-24T11:29:39;3.53;;;1.60;;
2956;SDS011;1488;51.548;7.222;2023-04-24T11:32:19;3.50;;;1.57;;
2956;SDS011;1488;51.548;7.222;2023-04-24T11:34:51;5.27;;;1.80;;
2956;SDS011;1488;51.548;7.222;2023-04-24T11:37:19;4.27;;;1.93;;
2956;SDS011;1488;51.548;7.222;2023-04-24T11:39:51;3.10;;;1.70;;
2956;SDS011;1488;51.548;7.222;2023-04-24T11:42:20;2.47;;;1.60;;
2956;SDS011;1488;51.548;7.222;2023-04-24T11:44:48;3.70;;;2.00;;
2956;SDS011;1488;51.548;7.222;2023-04-24T11:47:16;3.50;;;1.43;;
2956;SDS011;1488;51.548;7.222;2023-04-24T11:49:43;4.40;;;2.77;;
2956;SDS011;1488;51.548;7.222;2023-04-24T11:52:10;2.27;;;1.63;;
2956;SDS011;1488;51.548;7.222;2023-04-24T11:54:37;2.77;;;1.83;;
2956;SDS011;1488;51.548;7.222;2023-04-24T11:57:08;4.53;;;2.10;;
2956;SDS011;1488;51.548;7.222;2023-04-24T11:59:35;3.30;;;1.97;;
2956;SDS011;1488;51.548;7.222;2023-04-24T12:02:03;7.70;;;1.87;;
2956;SDS011;1488;51.548;7.222;2023-04-24T12:04:38;2.30;;;2.00;;
2956;SDS011;1488;51.548;7.222;2023-04-24T12:07:09;10.90;;;2.10;;
2956;SDS011;1488;51.548;7.222;2023-04-24T12:09:43;2.07;;;1.60;;
2956;SDS011;1488;51.548;7.222;2023-04-24T12:12:14;3.73;;;1.73;;
2956;SDS011;1488;51.548;7.222;2023-04-24T12:14:47;3.60;;;1.90;;
2956;SDS011;1488;51.548;7.222;2023-04-24T12:17:15;5.73;;;2.20;;
2956;SDS011;1488;51.548;7.222;2023-04-24T12:19:46;5.43;;;2.00;;
2956;SDS011;1488;51.548;7.222;2023-04-24T12:22:13;2.00;;;1.80;;
2956;SDS011;1488;51.548;7.222;2023-04-24T12:27:28;7.23;;;1.70;;
2956;SDS011;1488;51.548;7.222;2023-04-24T12:29:57;4.47;;;1.70;;
2956;SDS011;1488;51.548;7.222;2023-04-24T12:32:24;3.20;;;1.70;;
2956;SDS011;1488;51.548;7.222;2023-04-24T12:34:52;2.80;;;1.60;;
2956;SDS011;1488;51.548;7.222;2023-04-24T12:37:19;2.33;;;1.83;;
2956;SDS011;1488;51.548;7.222;2023-04-24T12:40:00;4.40;;;2.40;;
2956;SDS011;1488;51.548;7.222;2023-04-24T12:42:30;3.30;;;2.20;;
2956;SDS011;1488;51.548;7.222;2023-04-24T12:44:57;4.53;;;2.70;;
2956;SDS011;1488;51.548;7.222;2023-04-24T12:47:25;2.50;;;2.13;;
2956;SDS011;1488;51.548;7.222;2023-04-24T12:49:53;2.57;;;1.90;;
2956;SDS011;1488;51.548;7.222;2023-04-24T12:52:20;5.70;;;2.20;;
2956;SDS011;1488;51.548;7.222;2023-04-24T12:54:48;3.63;;;2.30;;
2956;SDS011;1488;51.548;7.222;2023-04-24T12:57:18;3.90;;;1.90;;
2956;SDS011;1488;51.548;7.222;2023-04-24T12:59:47;3.20;;;1.90;;
2956;SDS011;1488;51.548;7.222;2023-04-24T13:02:13;5.27;;;2.23;;
2956;SDS011;1488;51.548;7.222;2023-04-24T13:04:42;2.70;;;1.90;;
2956;SDS011;1488;51.548;7.222;2023-04-24T13:07:11;2.63;;;2.00;;
2956;SDS011;1488;51.548;7.222;2023-04-24T13:09:39;1.90;;;1.73;;
2956;SDS011;1488;51.548;7.222;2023-04-24T13:12:13;3.20;;;2.00;;
2956;SDS011;1488;51.548;7.222;2023-04-24T13:14:41;2.60;;;1.77;;
2956;SDS011;1488;51.548;7.222;2023-04-24T13:17:09;2.00;;;1.33;;
2956;SDS011;1488;51.548;7.222;2023-04-24T13:19:38;3.33;;;2.00;;
2956;SDS011;1488;51.548;7.222;2023-04-24T13:22:06;2.37;;;2.17;;
2956;SDS011;1488;51.548;7.222;2023-04-24T13:24:34;2.70;;;1.60;;
2956;SDS011;1488;51.548;7.222;2023-04-24T13:27:02;8.77;;;2.10;;
2956;SDS011;1488;51.548;7.222;2023-04-24T13:29:29;2.43;;;1.53;;
2956;SDS011;1488;51.548;7.222;2023-04-24T13:31:56;1.90;;;1.63;;
2956;SDS011;1488;51.548;7.222;2023-04-24T13:34:29;3.80;;;2.20;;
2956;SDS011;1488;51.548;7.222;2023-04-24T13:36:56;2.07;;;1.53;;
2956;SDS011;1488;51.548;7.222;2023-04-24T13:39:24;2.50;;;1.73;;
2956;SDS011;1488;51.548;7.222;2023-04-24T13:41:52;2.77;;;2.13;;
2956;SDS011;1488;51.548;7.222;2023-04-24T13:44:19;3.70;;;2.17;;
2956;SDS011;1488;51.548;7.222;2023-04-24T13:46:48;2.33;;;1.97;;
2956;SDS011;1488;51.548;7.222;2023-04-24T13:49:19;2.10;;;1.53;;
2956;SDS011;1488;51.548;7.222;2023-04-24T13:51:47;2.43;;;1.73;;
2956;SDS011;1488;51.548;7.222;2023-04-24T13:54:20;2.60;;;1.80;;
2956;SDS011;1488;51.548;7.222;2023-04-24T13:56:48;2.20;;;1.70;;
2956;SDS011;1488;51.548;7.222;2023-04-24T13:59:15;4.03;;;2.00;;
2956;SDS011;1488;51.548;7.222;2023-04-24T14:01:42;2.23;;;1.80;;
2956;SDS011;1488;51.548;7.222;2023-04-24T14:04:10;3.10;;;1.70;;
2956;SDS011;1488;51.548;7.222;2023-04-24T14:06:37;2.20;;;1.50;;
2956;SDS011;1488;51.548;7.222;2023-04-24T14:09:05;2.33;;;1.83;;
2956;SDS011;1488;51.548;7.222;2023-04-24T14:11:33;2.63;;;1.80;;
2956;SDS011;1488;51.548;7.222;2023-04-24T14:14:00;5.40;;;1.70;;
2956;SDS011;1488;51.548;7.222;2023-04-24T14:16:27;1.93;;;1.70;;
2956;SDS011;1488;51.548;7.222;2023-04-24T14:18:55;3.07;;;1.50;;
2956;SDS011;1488;51.548;7.222;2023-04-24T14:21:22;2.63;;;1.90;;
2956;SDS011;1488;51.548;7.222;2023-04-24T14:23:49;1.60;;;1.47;;
2956;SDS011;1488;51.548;7.222;2023-04-24T14:26:19;2.27;;;1.43;;
2956;SDS011;1488;51.548;7.222;2023-04-24T14:28:46;2.27;;;1.77;;
2956;SDS011;1488;51.548;7.222;2023-04-24T14:31:13;6.00;;;2.00;;
2956;SDS011;1488;51.548;7.222;2023-04-24T14:33:40;1.83;;;1.57;;
2956;SDS011;1488;51.548;7.222;2023-04-24T14:36:07;1.50;;;1.40;;
2956;SDS011;1488;51.548;7.222;2023-04-24T14:38:34;2.50;;;1.37;;
2956;SDS011;1488;51.548;7.222;2023-04-24T14:41:01;6.07;;;1.97;;
2956;SDS011;1488;51.548;7.222;2023-04-24T14:43:35;3.00;;;1.83;;
2956;SDS011;1488;51.548;7.222;2023-04-24T14:46:03;3.90;;;1.70;;
2956;SDS011;1488;51.548;7.222;2023-04-24T14:48:31;2.93;;;1.57;;
2956;SDS011;1488;51.548;7.222;2023-04-24T14:50:58;6.23;;;1.20;;
2956;SDS011;1488;51.548;7.222;2023-04-24T14:53:25;3.40;;;1.50;;
2956;SDS011;1488;51.548;7.222;2023-04-24T14:55:52;3.87;;;2.23;;
2956;SDS011;1488;51.548;7.222;2023-04-24T14:58:19;2.83;;;1.60;;
2956;SDS011;1488;51.548;7.222;2023-04-24T15:00:50;1.70;;;1.60;;
2956;SDS011;1488;51.548;7.222;2023-04-24T15:03:21;1.90;;;1.70;;
2956;SDS011;1488;51.548;7.222;2023-04-24T15:05:54;2.70;;;1.50;;
2956;SDS011;1488;51.548;7.222;2023-04-24T15:08:21;2.63;;;1.50;;
2956;SDS011;1488;51.548;7.222;2023-04-24T15:10:48;3.67;;;1.60;;
2956;SDS011;1488;51.548;7.222;2023-04-24T15:13:15;2.77;;;1.90;;
2956;SDS011;1488;51.548;7.222;2023-04-24T15:15:42;2.03;;;1.60;;
2956;SDS011;1488;51.548;7.222;2023-04-24T15:18:11;1.83;;;1.50;;
2956;SDS011;1488;51.548;7.222;2023-04-24T15:20:38;2.10;;;1.83;;
2956;SDS011;1488;51.548;7.222;2023-04-24T15:23:06;2.10;;;1.53;;
2956;SDS011;1488;51.548;7.222;2023-04-24T15:25:34;1.83;;;1.60;;
2956;SDS011;1488;51.548;7.222;2023-04-24T15:28:01;3.43;;;2.00;;
2956;SDS011;1488;51.548;7.222;2023-04-24T15:30:28;2.63;;;1.70;;
2956;SDS011;1488;51.548;7.222;2023-04-24T15:32:55;5.43;;;1.80;;
2956;SDS011;1488;51.548;7.222;2023-04-24T15:35:24;2.03;;;1.50;;
2956;SDS011;1488;51.548;7.222;2023-04-24T15:37:50;2.50;;;1.67;;
2956;SDS011;1488;51.548;7.222;2023-04-24T15:40:18;1.60;;;1.50;;